sensor_id;sensor_type;location;lat;lon;timestamp;pressure;altitude;pressure_sealevel;temperature;humidity
11077;BME280;5591;42.626;23.380;2023-07-09T02:44:16;94620.72;;;18.38;100.00
11077;BME280;5591;42.626;23.380;2023-07-09T02:46:44;94617.88;;;18.51;100.00
11077;BME280;5591;42.626;23.380;2023-07-09T02:49:12;94618.97;;;18.14;100.00
11077;BME280;5591;42.626;23.380;2023-07-09T02:51:40;94630.88;;;18.30;100.00
11077;BME280;5591;42.626;23.380;2023-07-09T02:54:07;94625.34;;;18.31;100.00
11077;BME280;5591;42.626;23.380;2023-07-09T02:56:34;94624.69;;;18.00;100.00
11077;BME280;5591;42.626;23.380;2023-07-09T02:59:01;94597.25;;;17.88;100.00
11077;BME280;5591;42.626;23.380;2023-07-09T03:01:30;94628.94;;;18.19;100.00
11077;BME280;5591;42.626;23.380;2023-07-09T03:03:58;94634.34;;;18.12;100.00
11077;BME280;5591;42.626;23.380;2023-07-09T03:06:25;94637.09;;;18.06;100.00
11077;BME280;5591;42.626;23.380;2023-07-09T03:08:53;94641.66;;;17.99;100.00
11077;BME280;5591;42.626;23.380;2023-07-09T03:11:20;94635.25;;;17.88;100.00
11077;BME280;5591;42.626;23.380;2023-07-09T03:13:48;94641.75;;;18.22;100.00
11077;BME280;5591;42.626;23.380;2023-07-09T03:16:15;94637.28;;;18.04;100.00
11077;BME280;5591;42.626;23.380;2023-07-09T03:18:45;94627.06;;;18.19;100.00
11077;BME280;5591;42.626;23.380;2023-07-09T03:21:12;94647.06;;;18.22;100.00
11077;BME280;5591;42.626;23.380;2023-07-09T03:23:39;94633.88;;;18.33;100.00
11077;BME280;5591;42.626;23.380;2023-07-09T03:26:06;94639.81;;;18.47;100.00
11077;BME280;5591;42.626;23.380;2023-07-09T03:28:33;94639.13;;;18.51;100.00
11077;BME280;5591;42.626;23.380;2023-07-09T03:30:59;94645.28;;;18.52;100.00
11077;BME280;5591;42.626;23.380;2023-07-09T03:33:26;94643.03;;;18.37;100.00
11077;BME280;5591;42.626;23.380;2023-07-09T03:35:54;94644.06;;;18.36;100.00
11077;BME280;5591;42.626;23.380;2023-07-09T03:38:21;94645.56;;;18.32;100.00
11077;BME280;5591;42.626;23.380;2023-07-09T03:40:50;94650.09;;;18.43;100.00
11077;BME280;5591;42.626;23.380;2023-07-09T03:43:17;94645.28;;;18.52;100.00
11077;BME280;5591;42.626;23.380;2023-07-09T03:45:45;94644.78;;;18.43;100.00
11077;BME280;5591;42.626;23.380;2023-07-09T03:48:13;94647.00;;;18.46;100.00
11077;BME280;5591;42.626;23.380;2023-07-09T03:50:41;94650.50;;;18.58;100.00
11077;BME280;5591;42.626;23.380;2023-07-09T03:53:10;94610.13;;;18.50;100.00
11077;BME280;5591;42.626;23.380;2023-07-09T03:55:37;94629.47;;;18.68;100.00
11077;BME280;5591;42.626;23.380;2023-07-09T03:58:04;94640.84;;;18.75;100.00
11077;BME280;5591;42.626;23.380;2023-07-09T04:00:32;94643.75;;;18.85;100.00
11077;BME280;5591;42.626;23.380;2023-07-09T04:02:59;94625.09;;;18.74;100.00
11077;BME280;5591;42.626;23.380;2023-07-09T04:05:26;94653.72;;;18.90;100.00
11077;BME280;5591;42.626;23.380;2023-07-09T04:07:54;94660.19;;;18.94;100.00
11077;BME280;5591;42.626;23.380;2023-07-09T04:10:22;94657.72;;;19.33;100.00
11077;BME280;5591;42.626;23.380;2023-07-09T04:12:49;94655.66;;;19.47;100.00
11077;BME280;5591;42.626;23.380;2023-07-09T04:15:16;94660.16;;;19.69;100.00
11077;BME280;5591;42.626;23.380;2023-07-09T04:17:42;94656.44;;;19.82;100.00
11077;BME280;5591;42.626;23.380;2023-07-09T04:20:10;94603.53;;;19.62;100.00
11077;BME280;5591;42.626;23.380;2023-07-09T04:22:38;94651.66;;;19.95;100.00
11077;BME280;5591;42.626;23.380;2023-07-09T04:25:06;94659.75;;;20.23;100.00
11077;BME280;5591;42.626;23.380;2023-07-09T04:27:37;94661.88;;;20.37;100.00
11077;BME280;5591;42.626;23.380;2023-07-09T04:30:05;94664.44;;;20.44;100.00
11077;BME280;5591;42.626;23.380;2023-07-09T04:32:32;94668.81;;;20.50;100.00
11077;BME280;5591;42.626;23.380;2023-07-09T04:34:59;94687.31;;;20.68;100.00
11077;BME280;5591;42.626;23.380;2023-07-09T04:37:26;94670.91;;;20.48;100.00
11077;BME280;5591;42.626;23.380;2023-07-09T04:39:53;94673.81;;;20.74;100.00
11077;BME280;5591;42.626;23.380;2023-07-09T04:42:20;94677.28;;;20.75;100.00
11077;BME280;5591;42.626;23.380;2023-07-09T04:44:48;94684.44;;;20.86;100.00
11077;BME280;5591;42.626;23.380;2023-07-09T04:47:15;94678.09;;;20.75;100.00
11077;BME280;5591;42.626;23.380;2023-07-09T04:49:42;94676.88;;;20.66;100.00
11077;BME280;5591;42.626;23.380;2023-07-09T04:52:09;94682.75;;;20.68;100.00
11077;BME280;5591;42.626;23.380;2023-07-09T04:54:39;94661.53;;;20.45;100.00
11077;BME280;5591;42.626;23.380;2023-07-09T04:57:09;94680.53;;;20.77;100.00
11077;BME280;5591;42.626;23.380;2023-07-09T04:59:36;94670.09;;;20.75;100.00
11077;BME280;5591;42.626;23.380;2023-07-09T05:02:05;94674.06;;;21.01;100.00
11077;BME280;5591;42.626;23.380;2023-07-09T05:04:32;94678.75;;;21.10;100.00
11077;BME280;5591;42.626;23.380;2023-07-09T05:06:59;94683.22;;;21.38;100.00
11077;BME280;5591;42.626;23.380;2023-07-09T05:09:25;94659.19;;;21.38;100.00
11077;BME280;5591;42.626;23.380;2023-07-09T05:11:52;94681.16;;;21.73;100.00
11077;BME280;5591;42.626;23.380;2023-07-09T05:14:19;94674.25;;;22.15;100.00
11077;BME280;5591;42.626;23.380;2023-07-09T05:16:46;94682.63;;;22.40;100.00
11077;BME280;5591;42.626;23.380;2023-07-09T05:19:14;94673.75;;;22.39;100.00
11077;BME280;5591;42.626;23.380;2023-07-09T05:21:41;94686.44;;;22.06;100.00
11077;BME280;5591;42.626;23.380;2023-07-09T05:24:08;94681.56;;;22.41;100.00
11077;BME280;5591;42.626;23.380;2023-07-09T05:26:34;94686.03;;;22.83;100.00
11077;BME280;5591;42.626;23.380;2023-07-09T05:29:03;94688.00;;;23.14;99.45
11077;BME280;5591;42.626;23.380;2023-07-09T05:31:30;94685.38;;;23.50;95.53
11077;BME280;5591;42.626;23.380;2023-07-09T05:33:58;94688.34;;;22.96;99.11
11077;BME280;5591;42.626;23.380;2023-07-09T05:36:29;94683.00;;;23.22;99.70
11077;BME280;5591;42.626;23.380;2023-07-09T05:38:56;94676.53;;;23.18;99.49
11077;BME280;5591;42.626;23.380;2023-07-09T05:41:23;94684.34;;;23.25;100.00
11077;BME280;5591;42.626;23.380;2023-07-09T05:43:50;94681.72;;;23.30;99.35
11077;BME280;5591;42.626;23.380;2023-07-09T05:46:17;94688.31;;;23.17;100.00
11077;BME280;5591;42.626;23.380;2023-07-09T05:48:44;94686.34;;;23.71;98.06
11077;BME280;5591;42.626;23.380;2023-07-09T05:51:11;94684.41;;;23.93;96.69
11077;BME280;5591;42.626;23.380;2023-07-09T05:53:40;94684.81;;;23.80;98.02
11077;BME280;5591;42.626;23.380;2023-07-09T05:56:07;94690.09;;;22.86;96.33
11077;BME280;5591;42.626;23.380;2023-07-09T05:58:34;94677.81;;;22.63;89.81
11077;BME280;5591;42.626;23.380;2023-07-09T06:01:00;94681.94;;;22.33;89.26
11077;BME280;5591;42.626;23.380;2023-07-09T06:03:29;94685.63;;;22.27;89.18
11077;BME280;5591;42.626;23.380;2023-07-09T06:05:56;94669.88;;;22.47;88.71
11077;BME280;5591;42.626;23.380;2023-07-09T06:08:23;94680.34;;;22.32;87.76
11077;BME280;5591;42.626;23.380;2023-07-09T06:10:57;94677.75;;;22.37;87.14
11077;BME280;5591;42.626;23.380;2023-07-09T06:13:25;94672.50;;;22.04;87.99
11077;BME280;5591;42.626;23.380;2023-07-09T06:15:53;94665.84;;;22.28;87.23
11077;BME280;5591;42.626;23.380;2023-07-09T06:18:21;94669.59;;;22.27;86.42
11077;BME280;5591;42.626;23.380;2023-07-09T06:20:49;94620.19;;;22.13;88.02
11077;BME280;5591;42.626;23.380;2023-07-09T06:23:16;94668.72;;;22.43;87.85
11077;BME280;5591;42.626;23.380;2023-07-09T06:25:43;94672.00;;;22.07;88.97
11077;BME280;5591;42.626;23.380;2023-07-09T06:28:14;94666.50;;;21.97;86.89
11077;BME280;5591;42.626;23.380;2023-07-09T06:30:41;94657.63;;;21.91;89.52
11077;BME280;5591;42.626;23.380;2023-07-09T06:33:09;94671.13;;;22.23;86.88
11077;BME280;5591;42.626;23.380;2023-07-09T06:35:36;94655.00;;;21.96;88.53
11077;BME280;5591;42.626;23.380;2023-07-09T06:38:03;94662.25;;;22.39;87.82
11077;BME280;5591;42.626;23.380;2023-07-09T06:40:30;94663.19;;;22.71;85.75
11077;BME280;5591;42.626;23.380;2023-07-09T06:42:57;94665.25;;;22.90;83.55
11077;BME280;5591;42.626;23.380;2023-07-09T06:45:25;94673.94;;;23.02;83.73
11077;BME280;5591;42.626;23.380;2023-07-09T06:47:52;94674.88;;;22.91;84.48
11077;BME280;5591;42.626;23.380;2023-07-09T06:50:19;94672.66;;;22.83;85.40
11077;BME280;5591;42.626;23.380;2023-07-09T06:52:46;94676.19;;;22.89;82.31
11077;BME280;5591;42.626;23.380;2023-07-09T06:55:13;94671.13;;;22.87;82.42
11077;BME280;5591;42.626;23.380;2023-07-09T06:57:40;94662.44;;;23.02;83.01
11077;BME280;5591;42.626;23.380;2023-07-09T07:00:08;94669.00;;;22.89;83.73
11077;BME280;5591;42.626;23.380;2023-07-09T07:02:36;94677.94;;;22.73;84.10
11077;BME280;5591;42.626;23.380;2023-07-09T07:05:03;94676.81;;;22.96;83.18
11077;BME280;5591;42.626;23.380;2023-07-09T07:07:30;94662.16;;;23.29;81.16
11077;BME280;5591;42.626;23.380;2023-07-09T07:09:58;94677.84;;;22.90;81.00
11077;BME280;5591;42.626;23.380;2023-07-09T07:12:27;94679.00;;;23.25;78.58
11077;BME280;5591;42.626;23.380;2023-07-09T07:14:55;94666.59;;;23.45;79.93
11077;BME280;5591;42.626;23.380;2023-07-09T07:17:22;94675.56;;;23.29;82.99
11077;BME280;5591;42.626;23.380;2023-07-09T07:19:51;94667.47;;;23.56;82.28
11077;BME280;5591;42.626;23.380;2023-07-09T07:22:18;94672.06;;;23.92;77.42
11077;BME280;5591;42.626;23.380;2023-07-09T07:24:44;94656.41;;;23.47;80.70
11077;BME280;5591;42.626;23.380;2023-07-09T07:27:11;94661.31;;;23.55;81.38
11077;BME280;5591;42.626;23.380;2023-07-09T07:29:38;94662.47;;;24.01;80.22
11077;BME280;5591;42.626;23.380;2023-07-09T07:32:06;94664.00;;;24.43;76.41
11077;BME280;5591;42.626;23.380;2023-07-09T07:34:33;94654.53;;;24.26;73.79
11077;BME280;5591;42.626;23.380;2023-07-09T07:37:02;94647.19;;;24.58;71.27
11077;BME280;5591;42.626;23.380;2023-07-09T07:39:29;94655.84;;;24.80;68.62
11077;BME280;5591;42.626;23.380;2023-07-09T07:41:56;94651.25;;;24.80;70.00
11077;BME280;5591;42.626;23.380;2023-07-09T07:44:23;94662.78;;;24.71;69.82
11077;BME280;5591;42.626;23.380;2023-07-09T07:46:50;94649.00;;;24.52;72.23
11077;BME280;5591;42.626;23.380;2023-07-09T07:49:17;94644.25;;;24.64;72.23
11077;BME280;5591;42.626;23.380;2023-07-09T07:51:44;94649.94;;;24.88;69.36
11077;BME280;5591;42.626;23.380;2023-07-09T07:54:12;94646.16;;;24.79;68.86
11077;BME280;5591;42.626;23.380;2023-07-09T07:56:39;94653.47;;;25.08;67.51
11077;BME280;5591;42.626;23.380;2023-07-09T07:59:05;94589.38;;;24.45;69.40
11077;BME280;5591;42.626;23.380;2023-07-09T08:01:32;94660.97;;;24.96;66.76
11077;BME280;5591;42.626;23.380;2023-07-09T08:04:00;94655.59;;;24.91;65.33
11077;BME280;5591;42.626;23.380;2023-07-09T08:06:27;94654.00;;;24.95;67.09
11077;BME280;5591;42.626;23.380;2023-07-09T08:08:54;94639.50;;;25.11;68.49
11077;BME280;5591;42.626;23.380;2023-07-09T08:11:22;94633.63;;;25.49;67.51
11077;BME280;5591;42.626;23.380;2023-07-09T08:13:50;94642.50;;;25.55;64.77
11077;BME280;5591;42.626;23.380;2023-07-09T08:16:17;94641.16;;;25.62;64.04
11077;BME280;5591;42.626;23.380;2023-07-09T08:18:44;94643.44;;;24.69;63.74
11077;BME280;5591;42.626;23.380;2023-07-09T08:21:10;94627.47;;;25.29;63.13
11077;BME280;5591;42.626;23.380;2023-07-09T08:23:37;94589.13;;;24.47;64.80
11077;BME280;5591;42.626;23.380;2023-07-09T08:26:05;94635.50;;;25.24;62.05
11077;BME280;5591;42.626;23.380;2023-07-09T08:28:33;94636.31;;;25.59;60.78
11077;BME280;5591;42.626;23.380;2023-07-09T08:31:01;94626.88;;;25.77;61.55
11077;BME280;5591;42.626;23.380;2023-07-09T08:33:28;94615.38;;;25.56;62.74
11077;BME280;5591;42.626;23.380;2023-07-09T08:35:55;94625.84;;;25.53;62.17
11077;BME280;5591;42.626;23.380;2023-07-09T08:38:23;94632.53;;;25.80;60.92
11077;BME280;5591;42.626;23.380;2023-07-09T08:40:54;94621.28;;;25.58;63.32
11077;BME280;5591;42.626;23.380;2023-07-09T08:43:35;94629.34;;;25.28;63.18
11077;BME280;5591;42.626;23.380;2023-07-09T08:46:14;94625.84;;;25.38;64.23
11077;BME280;5591;42.626;23.380;2023-07-09T08:48:45;94640.63;;;25.60;60.56
11077;BME280;5591;42.626;23.380;2023-07-09T08:51:17;94635.00;;;25.52;59.12
11077;BME280;5591;42.626;23.380;2023-07-09T08:53:49;94622.88;;;25.89;59.25
11077;BME280;5591;42.626;23.380;2023-07-09T08:56:17;94579.75;;;26.04;60.52
11077;BME280;5591;42.626;23.380;2023-07-09T08:58:46;94636.88;;;25.56;63.22
11077;BME280;5591;42.626;23.380;2023-07-09T09:01:18;94618.56;;;25.53;66.21
11077;BME280;5591;42.626;23.380;2023-07-09T09:03:48;94633.34;;;25.66;66.25
11077;BME280;5591;42.626;23.380;2023-07-09T09:06:19;94617.19;;;25.95;63.00
11077;BME280;5591;42.626;23.380;2023-07-09T09:08:54;94626.66;;;25.48;68.43
11077;BME280;5591;42.626;23.380;2023-07-09T09:11:31;94563.16;;;25.87;63.43
11077;BME280;5591;42.626;23.380;2023-07-09T09:14:15;94626.81;;;26.21;63.32
11077;BME280;5591;42.626;23.380;2023-07-09T09:16:45;94630.09;;;25.78;64.43
11077;BME280;5591;42.626;23.380;2023-07-09T09:19:18;94621.69;;;26.30;63.19
11077;BME280;5591;42.626;23.380;2023-07-09T09:21:50;94619.44;;;26.47;62.57
11077;BME280;5591;42.626;23.380;2023-07-09T09:24:32;94613.25;;;26.51;62.04
11077;BME280;5591;42.626;23.380;2023-07-09T09:27:01;94623.31;;;26.21;64.86
11077;BME280;5591;42.626;23.380;2023-07-09T09:29:30;94617.75;;;25.88;65.12
11077;BME280;5591;42.626;23.380;2023-07-09T09:31:59;94628.22;;;25.84;65.26
11077;BME280;5591;42.626;23.380;2023-07-09T09:34:32;94621.53;;;25.67;66.27
11077;BME280;5591;42.626;23.380;2023-07-09T09:36:59;94619.47;;;26.52;62.46
11077;BME280;5591;42.626;23.380;2023-07-09T09:39:26;94615.03;;;26.71;62.53
11077;BME280;5591;42.626;23.380;2023-07-09T09:41:55;94615.06;;;26.66;62.13
11077;BME280;5591;42.626;23.380;2023-07-09T09:44:26;94588.38;;;26.69;59.90
11077;BME280;5591;42.626;23.380;2023-07-09T09:46:56;94617.19;;;26.69;59.38
11077;BME280;5591;42.626;23.380;2023-07-09T09:49:23;94619.06;;;25.85;62.23
11077;BME280;5591;42.626;23.380;2023-07-09T09:51:50;94621.69;;;26.25;63.90
11077;BME280;5591;42.626;23.380;2023-07-09T09:54:19;94616.88;;;26.75;58.29
11077;BME280;5591;42.626;23.380;2023-07-09T09:56:49;94610.25;;;26.63;59.41
11077;BME280;5591;42.626;23.380;2023-07-09T09:59:18;94608.69;;;26.52;61.68
11077;BME280;5591;42.626;23.380;2023-07-09T10:01:46;94612.31;;;26.02;59.81
11077;BME280;5591;42.626;23.380;2023-07-09T10:04:18;94611.97;;;26.34;60.90
11077;BME280;5591;42.626;23.380;2023-07-09T10:06:48;94603.56;;;27.37;54.86
11077;BME280;5591;42.626;23.380;2023-07-09T10:09:23;94598.50;;;26.87;57.41
11077;BME280;5591;42.626;23.380;2023-07-09T10:11:57;94591.09;;;26.64;55.78
11077;BME280;5591;42.626;23.380;2023-07-09T10:14:38;94601.19;;;26.92;57.07
11077;BME280;5591;42.626;23.380;2023-07-09T10:17:15;94571.06;;;26.80;57.78
11077;BME280;5591;42.626;23.380;2023-07-09T10:19:49;94592.97;;;27.07;58.04
11077;BME280;5591;42.626;23.380;2023-07-09T10:22:24;94596.81;;;26.48;59.66
11077;BME280;5591;42.626;23.380;2023-07-09T10:25:00;94599.59;;;27.30;55.88
11077;BME280;5591;42.626;23.380;2023-07-09T10:27:32;94584.25;;;27.54;54.20
11077;BME280;5591;42.626;23.380;2023-07-09T10:30:19;94558.56;;;26.94;53.63
11077;BME280;5591;42.626;23.380;2023-07-09T10:32:57;94579.78;;;27.73;51.49
11077;BME280;5591;42.626;23.380;2023-07-09T10:35:33;94592.41;;;27.49;52.34
11077;BME280;5591;42.626;23.380;2023-07-09T10:38:22;94590.59;;;27.01;52.74
11077;BME280;5591;42.626;23.380;2023-07-09T10:40:55;94587.78;;;26.77;52.61
11077;BME280;5591;42.626;23.380;2023-07-09T10:43:35;94588.50;;;26.93;51.22
11077;BME280;5591;42.626;23.380;2023-07-09T10:46:07;94584.16;;;26.97;51.81
11077;BME280;5591;42.626;23.380;2023-07-09T10:48:40;94589.59;;;27.30;50.88
11077;BME280;5591;42.626;23.380;2023-07-09T10:51:16;94592.00;;;27.32;48.70
11077;BME280;5591;42.626;23.380;2023-07-09T10:53:46;94582.72;;;27.14;50.79
11077;BME280;5591;42.626;23.380;2023-07-09T10:56:17;94581.06;;;27.18;51.88
11077;BME280;5591;42.626;23.380;2023-07-09T10:58:50;94574.38;;;27.73;50.37
11077;BME280;5591;42.626;23.380;2023-07-09T11:01:27;94577.78;;;28.12;47.80
11077;BME280;5591;42.626;23.380;2023-07-09T11:04:00;94583.28;;;28.02;46.68
11077;BME280;5591;42.626;23.380;2023-07-09T11:06:33;94592.88;;;28.60;46.46
11077;BME280;5591;42.626;23.380;2023-07-09T11:09:06;94584.66;;;27.42;49.08
11077;BME280;5591;42.626;23.380;2023-07-09T11:11:41;94576.25;;;27.44;48.29
11077;BME280;5591;42.626;23.380;2023-07-09T11:14:24;94582.16;;;28.26;48.02
11077;BME280;5591;42.626;23.380;2023-07-09T11:16:55;94537.44;;;27.97;47.33
11077;BME280;5591;42.626;23.380;2023-07-09T11:19:23;94608.94;;;27.71;43.98
11077;BME280;5591;42.626;23.380;2023-07-09T11:22:02;94586.47;;;27.80;44.66
11077;BME280;5591;42.626;23.380;2023-07-09T11:24:32;94573.34;;;28.63;44.49
11077;BME280;5591;42.626;23.380;2023-07-09T11:26:59;94572.84;;;27.95;44.90
11077;BME280;5591;42.626;23.380;2023-07-09T11:29:27;94580.38;;;27.65;43.66
11077;BME280;5591;42.626;23.380;2023-07-09T11:31:54;94558.16;;;28.25;44.06
11077;BME280;5591;42.626;23.380;2023-07-09T11:34:27;94580.50;;;28.30;43.80
11077;BME280;5591;42.626;23.380;2023-07-09T11:36:59;94560.78;;;28.95;40.64
11077;BME280;5591;42.626;23.380;2023-07-09T11:39:28;94556.91;;;28.41;41.26
11077;BME280;5591;42.626;23.380;2023-07-09T11:41:56;94570.53;;;28.72;40.59
11077;BME280;5591;42.626;23.380;2023-07-09T11:44:25;94572.00;;;29.20;39.72
11077;BME280;5591;42.626;23.380;2023-07-09T11:47:19;94569.78;;;30.45;38.86
11077;BME280;5591;42.626;23.380;2023-07-09T11:49:52;94565.03;;;30.64;38.64
11077;BME280;5591;42.626;23.380;2023-07-09T11:52:27;94558.56;;;31.66;37.34
11077;BME280;5591;42.626;23.380;2023-07-09T11:54:55;94558.63;;;30.74;37.76
11077;BME280;5591;42.626;23.380;2023-07-09T11:57:22;94565.72;;;31.19;36.38
11077;BME280;5591;42.626;23.380;2023-07-09T11:59:48;94570.97;;;31.02;36.75
11077;BME280;5591;42.626;23.380;2023-07-09T12:02:18;94558.47;;;31.71;34.51
11077;BME280;5591;42.626;23.380;2023-07-09T12:04:48;94561.72;;;32.12;34.05
11077;BME280;5591;42.626;23.380;2023-07-09T12:07:16;94557.09;;;33.25;33.87
11077;BME280;5591;42.626;23.380;2023-07-09T12:09:47;94552.38;;;32.27;35.18
11077;BME280;5591;42.626;23.380;2023-07-09T12:12:20;94560.56;;;31.31;37.46
11077;BME280;5591;42.626;23.380;2023-07-09T12:14:48;94542.97;;;32.97;34.95
11077;BME280;5591;42.626;23.380;2023-07-09T12:17:15;94555.75;;;33.56;34.44
11077;BME280;5591;42.626;23.380;2023-07-09T12:19:42;94556.91;;;33.72;35.12
11077;BME280;5591;42.626;23.380;2023-07-09T12:22:14;94543.75;;;32.98;36.26
11077;BME280;5591;42.626;23.380;2023-07-09T12:24:44;94550.00;;;33.15;36.00
11077;BME280;5591;42.626;23.380;2023-07-09T12:27:22;94540.69;;;33.67;35.13
11077;BME280;5591;42.626;23.380;2023-07-09T12:29:51;94549.16;;;32.25;36.87
11077;BME280;5591;42.626;23.380;2023-07-09T12:32:18;94546.13;;;33.84;34.05
11077;BME280;5591;42.626;23.380;2023-07-09T12:34:50;94533.53;;;32.39;37.05
11077;BME280;5591;42.626;23.380;2023-07-09T12:37:18;94466.78;;;32.97;36.27
11077;BME280;5591;42.626;23.380;2023-07-09T12:39:50;94537.88;;;32.48;35.98
11077;BME280;5591;42.626;23.380;2023-07-09T12:42:19;94534.91;;;34.32;34.36
11077;BME280;5591;42.626;23.380;2023-07-09T12:44:47;94533.03;;;34.24;34.45
11077;BME280;5591;42.626;23.380;2023-07-09T12:47:16;94540.09;;;33.36;35.56
11077;BME280;5591;42.626;23.380;2023-07-09T12:49:44;94512.81;;;34.25;34.51
11077;BME280;5591;42.626;23.380;2023-07-09T12:52:17;94525.38;;;35.24;33.22
11077;BME280;5591;42.626;23.380;2023-07-09T12:54:55;94523.13;;;34.48;34.55
11077;BME280;5591;42.626;23.380;2023-07-09T12:57:23;94519.53;;;33.73;34.52
11077;BME280;5591;42.626;23.380;2023-07-09T12:59:51;94513.56;;;34.34;33.69
11077;BME280;5591;42.626;23.380;2023-07-09T13:02:19;94521.16;;;32.72;36.21
11077;BME280;5591;42.626;23.380;2023-07-09T13:04:47;94523.16;;;32.41;36.93
11077;BME280;5591;42.626;23.380;2023-07-09T13:07:30;94523.28;;;32.36;36.30
11077;BME280;5591;42.626;23.380;2023-07-09T13:10:07;94516.22;;;33.50;35.27
11077;BME280;5591;42.626;23.380;2023-07-09T13:12:34;94514.34;;;33.97;34.78
11077;BME280;5591;42.626;23.380;2023-07-09T13:15:06;94524.97;;;33.90;35.40
11077;BME280;5591;42.626;23.380;2023-07-09T13:17:33;94516.78;;;33.90;34.39
11077;BME280;5591;42.626;23.380;2023-07-09T13:20:00;94532.88;;;32.89;35.46
11077;BME280;5591;42.626;23.380;2023-07-09T13:22:28;94514.94;;;34.11;33.98
11077;BME280;5591;42.626;23.380;2023-07-09T13:24:55;94509.28;;;35.02;33.33
11077;BME280;5591;42.626;23.380;2023-07-09T13:27:23;94514.03;;;34.93;33.15
11077;BME280;5591;42.626;23.380;2023-07-09T13:29:50;94535.59;;;34.86;32.80
11077;BME280;5591;42.626;23.380;2023-07-09T13:32:18;94505.84;;;34.36;33.49
11077;BME280;5591;42.626;23.380;2023-07-09T13:34:45;94531.09;;;33.53;35.51
11077;BME280;5591;42.626;23.380;2023-07-09T13:37:13;94517.28;;;34.87;34.06
11077;BME280;5591;42.626;23.380;2023-07-09T13:39:41;94561.38;;;34.97;33.40
11077;BME280;5591;42.626;23.380;2023-07-09T13:42:11;94532.16;;;34.98;32.59
11077;BME280;5591;42.626;23.380;2023-07-09T13:44:40;94531.56;;;34.26;33.75
11077;BME280;5591;42.626;23.380;2023-07-09T13:47:11;94529.63;;;35.34;33.38
11077;BME280;5591;42.626;23.380;2023-07-09T13:49:40;94500.59;;;34.31;34.03
11077;BME280;5591;42.626;23.380;2023-07-09T13:52:10;94528.38;;;35.96;32.63
11077;BME280;5591;42.626;23.380;2023-07-09T13:54:40;94505.53;;;35.68;32.77
11077;BME280;5591;42.626;23.380;2023-07-09T13:57:12;94486.06;;;37.26;31.15
11077;BME280;5591;42.626;23.380;2023-07-09T13:59:41;94546.31;;;33.20;35.28
11077;BME280;5591;42.626;23.380;2023-07-09T14:02:18;94542.03;;;34.07;34.73
11077;BME280;5591;42.626;23.380;2023-07-09T14:04:46;94524.09;;;35.22;33.92
11077;BME280;5591;42.626;23.380;2023-07-09T14:07:23;94535.28;;;36.26;32.10
11077;BME280;5591;42.626;23.380;2023-07-09T14:09:51;94536.44;;;36.37;32.66
11077;BME280;5591;42.626;23.380;2023-07-09T14:12:18;94537.69;;;36.52;31.92
11077;BME280;5591;42.626;23.380;2023-07-09T14:14:46;94534.38;;;34.96;33.74
11077;BME280;5591;42.626;23.380;2023-07-09T14:17:13;94528.56;;;35.79;32.46
11077;BME280;5591;42.626;23.380;2023-07-09T14:19:40;94546.50;;;34.86;33.05
11077;BME280;5591;42.626;23.380;2023-07-09T14:22:20;94542.72;;;34.99;33.11
11077;BME280;5591;42.626;23.380;2023-07-09T14:24:47;94537.69;;;34.23;34.71
11077;BME280;5591;42.626;23.380;2023-07-09T14:27:14;94538.53;;;35.43;33.60
11077;BME280;5591;42.626;23.380;2023-07-09T14:29:41;94532.66;;;35.53;33.16
11077;BME280;5591;42.626;23.380;2023-07-09T14:32:32;94535.13;;;36.11;32.49
11077;BME280;5591;42.626;23.380;2023-07-09T14:34:59;94514.28;;;33.59;34.94
11077;BME280;5591;42.626;23.380;2023-07-09T14:37:27;94525.72;;;34.73;33.95
11077;BME280;5591;42.626;23.380;2023-07-09T14:39:54;94531.78;;;34.79;34.26
11077;BME280;5591;42.626;23.380;2023-07-09T14:42:21;94542.91;;;34.37;35.08
11077;BME280;5591;42.626;23.380;2023-07-09T14:44:48;94531.75;;;34.13;35.04
11077;BME280;5591;42.626;23.380;2023-07-09T14:47:19;94534.91;;;33.86;34.76
11077;BME280;5591;42.626;23.380;2023-07-09T14:49:46;94523.97;;;33.94;34.52
11077;BME280;5591;42.626;23.380;2023-07-09T14:52:16;94529.38;;;34.03;34.83
11077;BME280;5591;42.626;23.380;2023-07-09T14:54:45;94533.13;;;34.36;34.63
11077;BME280;5591;42.626;23.380;2023-07-09T14:57:20;94530.22;;;33.95;34.17
11077;BME280;5591;42.626;23.380;2023-07-09T14:59:48;94508.69;;;33.56;33.82
11077;BME280;5591;42.626;23.380;2023-07-09T15:02:23;94532.75;;;33.28;34.24
11077;BME280;5591;42.626;23.380;2023-07-09T15:04:51;94545.34;;;33.50;33.44
11077;BME280;5591;42.626;23.380;2023-07-09T15:07:18;94521.59;;;34.30;32.38
11077;BME280;5591;42.626;23.380;2023-07-09T15:09:45;94556.88;;;33.64;34.00
11077;BME280;5591;42.626;23.380;2023-07-09T15:12:16;94542.81;;;33.28;34.12
11077;BME280;5591;42.626;23.380;2023-07-09T15:14:44;94533.41;;;34.43;32.85
11077;BME280;5591;42.626;23.380;2023-07-09T15:17:12;94541.69;;;35.33;31.50
11077;BME280;5591;42.626;23.380;2023-07-09T15:19:40;94556.97;;;36.79;29.93
11077;BME280;5591;42.626;23.380;2023-07-09T15:22:19;94554.03;;;34.60;32.32
11077;BME280;5591;42.626;23.380;2023-07-09T15:24:51;94549.53;;;35.34;31.63
11077;BME280;5591;42.626;23.380;2023-07-09T15:27:17;94544.09;;;34.56;31.46
11077;BME280;5591;42.626;23.380;2023-07-09T15:29:44;94553.00;;;34.65;31.51
11077;BME280;5591;42.626;23.380;2023-07-09T15:32:11;94549.28;;;36.13;30.56
11077;BME280;5591;42.626;23.380;2023-07-09T15:34:39;94553.34;;;33.89;33.10
11077;BME280;5591;42.626;23.380;2023-07-09T15:37:11;94549.94;;;34.75;32.74
11077;BME280;5591;42.626;23.380;2023-07-09T15:39:39;94556.66;;;35.06;31.59
11077;BME280;5591;42.626;23.380;2023-07-09T15:42:10;94552.50;;;34.80;32.03
11077;BME280;5591;42.626;23.380;2023-07-09T15:44:37;94549.44;;;34.44;32.85
11077;BME280;5591;42.626;23.380;2023-07-09T15:47:04;94557.75;;;34.10;32.71
11077;BME280;5591;42.626;23.380;2023-07-09T15:49:34;94555.13;;;33.51;33.63
11077;BME280;5591;42.626;23.380;2023-07-09T15:52:03;94556.19;;;34.01;33.01